sensor_id;sensor_type;location;lat;lon;timestamp;pressure;altitude;pressure_sealevel;temperature;humidity
32933;BME280;19444;50.518;10.870;2023-07-20T00:00:45;96298.63;;;14.72;100.00
32933;BME280;19444;50.518;10.870;2023-07-20T00:03:43;96287.19;;;14.50;100.00
32933;BME280;19444;50.518;10.870;2023-07-20T00:06:40;96289.66;;;14.68;100.00
32933;BME280;19444;50.518;10.870;2023-07-20T00:09:37;96288.91;;;14.55;100.00
32933;BME280;19444;50.518;10.870;2023-07-20T00:12:34;96283.69;;;14.62;100.00
32933;BME280;19444;50.518;10.870;2023-07-20T00:15:31;96288.84;;;14.43;100.00
32933;BME280;19444;50.518;10.870;2023-07-20T00:18:28;96280.34;;;14.53;100.00
32933;BME280;19444;50.518;10.870;2023-07-20T00:21:25;96280.81;;;14.55;100.00
32933;BME280;19444;50.518;10.870;2023-07-20T00:24:23;96284.81;;;14.61;100.00
32933;BME280;19444;50.518;10.870;2023-07-20T00:27:19;96276.06;;;14.64;100.00
32933;BME280;19444;50.518;10.870;2023-07-20T00:30:16;96270.34;;;14.54;100.00
32933;BME280;19444;50.518;10.870;2023-07-20T00:33:17;96278.31;;;14.50;100.00
32933;BME280;19444;50.518;10.870;2023-07-20T00:36:15;96274.50;;;14.51;100.00
32933;BME280;19444;50.518;10.870;2023-07-20T00:39:12;96277.75;;;14.57;100.00
32933;BME280;19444;50.518;10.870;2023-07-20T00:42:09;96284.38;;;14.59;100.00
32933;BME280;19444;50.518;10.870;2023-07-20T00:45:06;96277.53;;;14.49;100.00
32933;BME280;19444;50.518;10.870;2023-07-20T00:48:05;96277.63;;;14.41;100.00
32933;BME280;19444;50.518;10.870;2023-07-20T00:51:03;96276.94;;;14.44;100.00
32933;BME280;19444;50.518;10.870;2023-07-20T00:54:00;96282.38;;;14.56;100.00
32933;BME280;19444;50.518;10.870;2023-07-20T00:56:58;96274.84;;;14.49;100.00
32933;BME280;19444;50.518;10.870;2023-07-20T00:59:55;96282.56;;;14.27;100.00
32933;BME280;19444;50.518;10.870;2023-07-20T01:02:52;96282.78;;;14.34;100.00
32933;BME280;19444;50.518;10.870;2023-07-20T01:13:07;96284.00;;;14.24;100.00
32933;BME280;19444;50.518;10.870;2023-07-20T01:16:06;96278.06;;;14.31;100.00
32933;BME280;19444;50.518;10.870;2023-07-20T01:19:03;96273.13;;;14.33;100.00
32933;BME280;19444;50.518;10.870;2023-07-20T01:25:42;96286.50;;;14.29;100.00
32933;BME280;19444;50.518;10.870;2023-07-20T01:29:17;96283.66;;;14.13;100.00
32933;BME280;19444;50.518;10.870;2023-07-20T01:32:19;96292.53;;;14.14;100.00
32933;BME280;19444;50.518;10.870;2023-07-20T01:35:23;96288.03;;;14.06;100.00
32933;BME280;19444;50.518;10.870;2023-07-20T01:38:21;96289.75;;;14.10;100.00
32933;BME280;19444;50.518;10.870;2023-07-20T01:41:20;96292.00;;;14.20;100.00
32933;BME280;19444;50.518;10.870;2023-07-20T01:44:17;96289.28;;;14.08;100.00
32933;BME280;19444;50.518;10.870;2023-07-20T01:47:14;96287.22;;;13.93;100.00
32933;BME280;19444;50.518;10.870;2023-07-20T01:50:11;96289.06;;;14.13;100.00
32933;BME280;19444;50.518;10.870;2023-07-20T01:53:08;96286.09;;;13.94;100.00
32933;BME280;19444;50.518;10.870;2023-07-20T01:56:05;96282.53;;;13.90;100.00
32933;BME280;19444;50.518;10.870;2023-07-20T01:59:02;96282.38;;;13.74;100.00
32933;BME280;19444;50.518;10.870;2023-07-20T02:01:59;96287.78;;;13.86;100.00
32933;BME280;19444;50.518;10.870;2023-07-20T02:04:57;96289.38;;;14.00;100.00
32933;BME280;19444;50.518;10.870;2023-07-20T02:07:54;96289.22;;;13.72;100.00
32933;BME280;19444;50.518;10.870;2023-07-20T02:10:52;96291.44;;;13.70;100.00
32933;BME280;19444;50.518;10.870;2023-07-20T02:13:49;96290.09;;;13.76;100.00
32933;BME280;19444;50.518;10.870;2023-07-20T02:16:46;96294.88;;;13.91;100.00
32933;BME280;19444;50.518;10.870;2023-07-20T02:19:43;96295.00;;;13.61;100.00
32933;BME280;19444;50.518;10.870;2023-07-20T02:22:40;96293.56;;;13.64;100.00
32933;BME280;19444;50.518;10.870;2023-07-20T02:25:37;96288.72;;;13.70;100.00
32933;BME280;19444;50.518;10.870;2023-07-20T02:28:35;96294.44;;;13.56;100.00
32933;BME280;19444;50.518;10.870;2023-07-20T02:31:31;96299.63;;;13.40;100.00
32933;BME280;19444;50.518;10.870;2023-07-20T02:34:29;96317.22;;;13.37;100.00
32933;BME280;19444;50.518;10.870;2023-07-20T02:37:25;96304.09;;;13.36;100.00
32933;BME280;19444;50.518;10.870;2023-07-20T02:40:22;96304.56;;;13.38;100.00
32933;BME280;19444;50.518;10.870;2023-07-20T02:43:19;96300.75;;;13.18;100.00
32933;BME280;19444;50.518;10.870;2023-07-20T02:46:16;96305.59;;;13.04;100.00
32933;BME280;19444;50.518;10.870;2023-07-20T02:49:13;96297.44;;;13.13;100.00
32933;BME280;19444;50.518;10.870;2023-07-20T02:52:10;96297.19;;;13.05;100.00
32933;BME280;19444;50.518;10.870;2023-07-20T02:55:07;96298.06;;;13.39;100.00
32933;BME280;19444;50.518;10.870;2023-07-20T02:58:04;96285.69;;;13.26;100.00
32933;BME280;19444;50.518;10.870;2023-07-20T03:01:01;96290.94;;;13.14;100.00
32933;BME280;19444;50.518;10.870;2023-07-20T03:03:58;96286.16;;;12.98;100.00
32933;BME280;19444;50.518;10.870;2023-07-20T03:06:55;96296.19;;;12.89;100.00
32933;BME280;19444;50.518;10.870;2023-07-20T03:09:52;96286.34;;;12.93;100.00
32933;BME280;19444;50.518;10.870;2023-07-20T03:12:50;96288.66;;;13.03;100.00
32933;BME280;19444;50.518;10.870;2023-07-20T03:15:47;96287.16;;;12.94;100.00
32933;BME280;19444;50.518;10.870;2023-07-20T03:18:44;96290.88;;;13.01;100.00
32933;BME280;19444;50.518;10.870;2023-07-20T03:21:41;96294.81;;;13.04;100.00
32933;BME280;19444;50.518;10.870;2023-07-20T03:24:38;96303.44;;;13.18;100.00
32933;BME280;19444;50.518;10.870;2023-07-20T03:27:35;96309.22;;;13.08;100.00
32933;BME280;19444;50.518;10.870;2023-07-20T03:30:32;96314.25;;;13.09;100.00
32933;BME280;19444;50.518;10.870;2023-07-20T03:33:29;96314.22;;;12.89;100.00
32933;BME280;19444;50.518;10.870;2023-07-20T03:36:27;96319.88;;;12.96;100.00
32933;BME280;19444;50.518;10.870;2023-07-20T03:39:24;96315.22;;;13.05;100.00
32933;BME280;19444;50.518;10.870;2023-07-20T03:42:20;96326.50;;;12.98;100.00
32933;BME280;19444;50.518;10.870;2023-07-20T03:45:17;96332.84;;;12.73;100.00
32933;BME280;19444;50.518;10.870;2023-07-20T03:48:20;96333.19;;;12.92;100.00
32933;BME280;19444;50.518;10.870;2023-07-20T03:51:20;96330.69;;;12.87;100.00
32933;BME280;19444;50.518;10.870;2023-07-20T03:54:17;96327.22;;;12.87;100.00
32933;BME280;19444;50.518;10.870;2023-07-20T03:57:15;96333.72;;;12.86;100.00
32933;BME280;19444;50.518;10.870;2023-07-20T04:00:13;96330.50;;;12.92;100.00
32933;BME280;19444;50.518;10.870;2023-07-20T04:03:11;96329.34;;;13.02;100.00
32933;BME280;19444;50.518;10.870;2023-07-20T04:06:09;96337.63;;;12.88;100.00
32933;BME280;19444;50.518;10.870;2023-07-20T04:09:05;96341.78;;;13.06;100.00
32933;BME280;19444;50.518;10.870;2023-07-20T04:12:03;96339.41;;;12.84;100.00
32933;BME280;19444;50.518;10.870;2023-07-20T04:15:00;96338.81;;;13.08;100.00
32933;BME280;19444;50.518;10.870;2023-07-20T04:17:57;96351.03;;;12.97;100.00
32933;BME280;19444;50.518;10.870;2023-07-20T04:20:54;96354.44;;;12.85;100.00
32933;BME280;19444;50.518;10.870;2023-07-20T04:23:51;96361.38;;;12.86;100.00
32933;BME280;19444;50.518;10.870;2023-07-20T04:26:48;96366.19;;;12.80;100.00
32933;BME280;19444;50.518;10.870;2023-07-20T04:29:45;96366.25;;;12.93;100.00
32933;BME280;19444;50.518;10.870;2023-07-20T04:32:42;96364.31;;;13.02;100.00
32933;BME280;19444;50.518;10.870;2023-07-20T04:35:53;96358.84;;;12.90;100.00
32933;BME280;19444;50.518;10.870;2023-07-20T04:38:51;96357.75;;;13.12;100.00
32933;BME280;19444;50.518;10.870;2023-07-20T04:41:48;96360.38;;;12.99;100.00
32933;BME280;19444;50.518;10.870;2023-07-20T04:44:45;96359.69;;;12.81;100.00
32933;BME280;19444;50.518;10.870;2023-07-20T04:47:42;96367.94;;;12.76;100.00
32933;BME280;19444;50.518;10.870;2023-07-20T04:50:41;96367.50;;;12.66;100.00
32933;BME280;19444;50.518;10.870;2023-07-20T04:53:38;96365.91;;;12.73;100.00
32933;BME280;19444;50.518;10.870;2023-07-20T04:56:35;96369.53;;;12.69;100.00
32933;BME280;19444;50.518;10.870;2023-07-20T04:59:33;96376.06;;;12.59;100.00
32933;BME280;19444;50.518;10.870;2023-07-20T05:02:30;96359.31;;;12.62;100.00
32933;BME280;19444;50.518;10.870;2023-07-20T05:05:27;96358.84;;;12.90;100.00
32933;BME280;19444;50.518;10.870;2023-07-20T05:08:24;96362.84;;;12.84;100.00
32933;BME280;19444;50.518;10.870;2023-07-20T05:11:21;96357.03;;;12.73;100.00
32933;BME280;19444;50.518;10.870;2023-07-20T05:14:18;96347.31;;;13.10;100.00
32933;BME280;19444;50.518;10.870;2023-07-20T05:17:14;96356.28;;;12.93;100.00
32933;BME280;19444;50.518;10.870;2023-07-20T05:20:11;96355.25;;;13.06;100.00
32933;BME280;19444;50.518;10.870;2023-07-20T05:23:11;96359.63;;;12.90;100.00
32933;BME280;19444;50.518;10.870;2023-07-20T05:26:08;96348.91;;;13.11;100.00
32933;BME280;19444;50.518;10.870;2023-07-20T05:29:05;96354.06;;;13.16;100.00
32933;BME280;19444;50.518;10.870;2023-07-20T05:32:03;96360.00;;;13.09;100.00
32933;BME280;19444;50.518;10.870;2023-07-20T05:35:00;96373.09;;;13.20;100.00
32933;BME280;19444;50.518;10.870;2023-07-20T05:37:56;96362.31;;;13.41;100.00
32933;BME280;19444;50.518;10.870;2023-07-20T05:40:59;96351.88;;;13.39;100.00
32933;BME280;19444;50.518;10.870;2023-07-20T05:43:58;96349.88;;;13.36;100.00
32933;BME280;19444;50.518;10.870;2023-07-20T05:46:55;96361.53;;;13.40;100.00
32933;BME280;19444;50.518;10.870;2023-07-20T05:49:54;96357.41;;;13.63;100.00
32933;BME280;19444;50.518;10.870;2023-07-20T05:52:54;96355.78;;;13.83;100.00
32933;BME280;19444;50.518;10.870;2023-07-20T05:55:55;96367.34;;;13.84;100.00
32933;BME280;19444;50.518;10.870;2023-07-20T05:58:52;96364.50;;;14.01;100.00
32933;BME280;19444;50.518;10.870;2023-07-20T06:01:49;96365.22;;;14.35;100.00
32933;BME280;19444;50.518;10.870;2023-07-20T06:04:46;96364.66;;;14.29;100.00
32933;BME280;19444;50.518;10.870;2023-07-20T06:07:43;96362.69;;;14.50;100.00
32933;BME280;19444;50.518;10.870;2023-07-20T06:10:40;96366.75;;;14.57;100.00
32933;BME280;19444;50.518;10.870;2023-07-20T06:13:41;96361.03;;;14.70;100.00
32933;BME280;19444;50.518;10.870;2023-07-20T06:16:39;96351.59;;;14.76;100.00
32933;BME280;19444;50.518;10.870;2023-07-20T06:19:37;96349.66;;;14.89;100.00
32933;BME280;19444;50.518;10.870;2023-07-20T06:22:34;96359.56;;;14.85;100.00
32933;BME280;19444;50.518;10.870;2023-07-20T06:25:31;96356.97;;;14.89;100.00
32933;BME280;19444;50.518;10.870;2023-07-20T06:28:28;96346.97;;;15.01;100.00
32933;BME280;19444;50.518;10.870;2023-07-20T06:31:25;96346.94;;;15.14;100.00
32933;BME280;19444;50.518;10.870;2023-07-20T06:34:22;96354.06;;;14.94;100.00
32933;BME280;19444;50.518;10.870;2023-07-20T06:37:20;96356.38;;;15.20;100.00
32933;BME280;19444;50.518;10.870;2023-07-20T06:40:17;96357.63;;;15.22;100.00
32933;BME280;19444;50.518;10.870;2023-07-20T06:43:17;96352.44;;;15.17;100.00
32933;BME280;19444;50.518;10.870;2023-07-20T06:46:17;96352.81;;;15.44;100.00
32933;BME280;19444;50.518;10.870;2023-07-20T06:49:27;96343.81;;;15.52;100.00
32933;BME280;19444;50.518;10.870;2023-07-20T06:52:24;96335.44;;;15.69;100.00
32933;BME280;19444;50.518;10.870;2023-07-20T06:55:21;96345.97;;;15.46;100.00
32933;BME280;19444;50.518;10.870;2023-07-20T06:58:19;96339.50;;;15.63;100.00
32933;BME280;19444;50.518;10.870;2023-07-20T07:01:18;96343.09;;;15.67;100.00
32933;BME280;19444;50.518;10.870;2023-07-20T07:04:16;96343.31;;;15.74;100.00
32933;BME280;19444;50.518;10.870;2023-07-20T07:07:16;96345.22;;;16.02;100.00
32933;BME280;19444;50.518;10.870;2023-07-20T07:10:22;96340.16;;;16.16;100.00
32933;BME280;19444;50.518;10.870;2023-07-20T07:13:19;96331.81;;;16.37;100.00
32933;BME280;19444;50.518;10.870;2023-07-20T07:16:17;96336.53;;;16.40;100.00
32933;BME280;19444;50.518;10.870;2023-07-20T07:19:16;96336.78;;;16.35;100.00
32933;BME280;19444;50.518;10.870;2023-07-20T07:22:13;96333.13;;;16.43;100.00
32933;BME280;19444;50.518;10.870;2023-07-20T07:25:10;96328.16;;;16.29;100.00
32933;BME280;19444;50.518;10.870;2023-07-20T07:28:07;96339.66;;;16.58;100.00
32933;BME280;19444;50.518;10.870;2023-07-20T07:31:05;96339.31;;;16.59;100.00
32933;BME280;19444;50.518;10.870;2023-07-20T07:34:03;96343.25;;;16.30;100.00
32933;BME280;19444;50.518;10.870;2023-07-20T07:37:00;96341.78;;;16.48;100.00
32933;BME280;19444;50.518;10.870;2023-07-20T07:39:57;96339.22;;;16.24;100.00
32933;BME280;19444;50.518;10.870;2023-07-20T07:42:54;96329.72;;;16.46;100.00
32933;BME280;19444;50.518;10.870;2023-07-20T07:45:54;96333.94;;;16.75;100.00
32933;BME280;19444;50.518;10.870;2023-07-20T07:48:51;96328.38;;;17.03;100.00
32933;BME280;19444;50.518;10.870;2023-07-20T07:51:48;96331.13;;;16.71;100.00
32933;BME280;19444;50.518;10.870;2023-07-20T07:54:45;96331.47;;;16.70;100.00
32933;BME280;19444;50.518;10.870;2023-07-20T07:57:42;96337.38;;;16.91;100.00
32933;BME280;19444;50.518;10.870;2023-07-20T08:00:39;96331.19;;;16.91;100.00
32933;BME280;19444;50.518;10.870;2023-07-20T08:03:36;96330.03;;;17.27;100.00
32933;BME280;19444;50.518;10.870;2023-07-20T08:06:33;96335.41;;;17.62;100.00
32933;BME280;19444;50.518;10.870;2023-07-20T08:09:30;96329.53;;;17.76;100.00
32933;BME280;19444;50.518;10.870;2023-07-20T08:12:27;96336.75;;;18.10;100.00
32933;BME280;19444;50.518;10.870;2023-07-20T08:15:24;96327.59;;;17.57;100.00
32933;BME280;19444;50.518;10.870;2023-07-20T08:18:21;96340.28;;;17.18;100.00
32933;BME280;19444;50.518;10.870;2023-07-20T08:21:18;96336.25;;;16.92;100.00
32933;BME280;19444;50.518;10.870;2023-07-20T08:24:15;96337.53;;;17.14;100.00
32933;BME280;19444;50.518;10.870;2023-07-20T08:27:12;96340.94;;;17.85;100.00
32933;BME280;19444;50.518;10.870;2023-07-20T08:30:10;96335.88;;;17.83;100.00
32933;BME280;19444;50.518;10.870;2023-07-20T08:33:07;96335.72;;;17.57;100.00
32933;BME280;19444;50.518;10.870;2023-07-20T08:36:04;96334.47;;;17.54;100.00
32933;BME280;19444;50.518;10.870;2023-07-20T08:39:03;96333.34;;;17.55;100.00
32933;BME280;19444;50.518;10.870;2023-07-20T08:42:01;96328.84;;;17.44;100.00
32933;BME280;19444;50.518;10.870;2023-07-20T08:45:01;96338.47;;;17.41;100.00
32933;BME280;19444;50.518;10.870;2023-07-20T08:48:01;96343.53;;;17.43;100.00
32933;BME280;19444;50.518;10.870;2023-07-20T08:51:00;96353.84;;;17.37;100.00
32933;BME280;19444;50.518;10.870;2023-07-20T08:53:59;96355.34;;;17.15;100.00
32933;BME280;19444;50.518;10.870;2023-07-20T08:56:58;96352.34;;;16.85;100.00
32933;BME280;19444;50.518;10.870;2023-07-20T08:59:57;96364.31;;;16.84;100.00
32933;BME280;19444;50.518;10.870;2023-07-20T09:02:56;96361.94;;;16.83;100.00
32933;BME280;19444;50.518;10.870;2023-07-20T09:05:54;96362.69;;;16.99;100.00
32933;BME280;19444;50.518;10.870;2023-07-20T09:08:51;96370.84;;;16.83;100.00
32933;BME280;19444;50.518;10.870;2023-07-20T09:11:49;96359.28;;;16.55;100.00
32933;BME280;19444;50.518;10.870;2023-07-20T09:14:46;96368.56;;;16.85;100.00
32933;BME280;19444;50.518;10.870;2023-07-20T09:17:48;96355.03;;;18.13;100.00
32933;BME280;19444;50.518;10.870;2023-07-20T09:20:45;96352.00;;;18.84;100.00
32933;BME280;19444;50.518;10.870;2023-07-20T09:23:42;96351.69;;;19.15;100.00
32933;BME280;19444;50.518;10.870;2023-07-20T09:26:44;96363.63;;;19.37;100.00
32933;BME280;19444;50.518;10.870;2023-07-20T09:29:51;96350.50;;;19.13;100.00
32933;BME280;19444;50.518;10.870;2023-07-20T09:32:49;96340.75;;;18.62;100.00
32933;BME280;19444;50.518;10.870;2023-07-20T09:35:50;96347.59;;;18.10;100.00
32933;BME280;19444;50.518;10.870;2023-07-20T09:38:51;96340.28;;;18.57;100.00
32933;BME280;19444;50.518;10.870;2023-07-20T09:41:51;96347.03;;;18.21;100.00
32933;BME280;19444;50.518;10.870;2023-07-20T09:45:09;96349.47;;;18.48;100.00
32933;BME280;19444;50.518;10.870;2023-07-20T09:48:10;96340.28;;;18.80;100.00
32933;BME280;19444;50.518;10.870;2023-07-20T09:51:11;96344.34;;;18.66;100.00
32933;BME280;19444;50.518;10.870;2023-07-20T09:54:08;96337.22;;;18.58;100.00
32933;BME280;19444;50.518;10.870;2023-07-20T09:57:09;96345.88;;;18.22;100.00
32933;BME280;19444;50.518;10.870;2023-07-20T10:00:09;96344.88;;;18.30;100.00
32933;BME280;19444;50.518;10.870;2023-07-20T10:03:19;96348.47;;;18.37;100.00
32933;BME280;19444;50.518;10.870;2023-07-20T10:06:25;96344.31;;;18.43;100.00
32933;BME280;19444;50.518;10.870;2023-07-20T10:09:26;96341.28;;;18.68;100.00
32933;BME280;19444;50.518;10.870;2023-07-20T10:12:25;96341.09;;;19.37;100.00
32933;BME280;19444;50.518;10.870;2023-07-20T10:15:43;96334.75;;;18.72;100.00
32933;BME280;19444;50.518;10.870;2023-07-20T10:22:14;96349.94;;;18.77;100.00
32933;BME280;19444;50.518;10.870;2023-07-20T10:25:12;96332.59;;;20.02;100.00
32933;BME280;19444;50.518;10.870;2023-07-20T10:28:10;96331.19;;;21.07;96.10
32933;BME280;19444;50.518;10.870;2023-07-20T10:31:13;96329.88;;;20.02;100.00
32933;BME280;19444;50.518;10.870;2023-07-20T10:34:10;96334.06;;;19.32;100.00
32933;BME280;19444;50.518;10.870;2023-07-20T10:37:07;96335.28;;;18.36;100.00
32933;BME280;19444;50.518;10.870;2023-07-20T10:43:25;96337.66;;;19.66;100.00
32933;BME280;19444;50.518;10.870;2023-07-20T10:49:59;96339.66;;;20.10;96.25
32933;BME280;19444;50.518;10.870;2023-07-20T10:53:15;96341.19;;;19.70;96.32
32933;BME280;19444;50.518;10.870;2023-07-20T10:56:14;96340.16;;;18.72;100.00
32933;BME280;19444;50.518;10.870;2023-07-20T11:02:24;96321.25;;;20.33;99.66
32933;BME280;19444;50.518;10.870;2023-07-20T11:05:40;96319.38;;;20.85;96.53
32933;BME280;19444;50.518;10.870;2023-07-20T11:08:43;96324.25;;;20.65;93.67
32933;BME280;19444;50.518;10.870;2023-07-20T11:11:47;96311.91;;;21.37;87.53
32933;BME280;19444;50.518;10.870;2023-07-20T11:14:56;96313.47;;;20.76;94.10
32933;BME280;19444;50.518;10.870;2023-07-20T11:18:12;96309.84;;;20.61;88.37
32933;BME280;19444;50.518;10.870;2023-07-20T11:21:09;96307.59;;;20.70;94.56
32933;BME280;19444;50.518;10.870;2023-07-20T11:24:07;96320.13;;;19.97;96.53
32933;BME280;19444;50.518;10.870;2023-07-20T11:27:06;96310.63;;;20.62;98.19
32933;BME280;19444;50.518;10.870;2023-07-20T11:30:03;96312.09;;;19.44;82.44
32933;BME280;19444;50.518;10.870;2023-07-20T11:33:00;96312.72;;;19.60;85.96
32933;BME280;19444;50.518;10.870;2023-07-20T11:35:57;96323.84;;;19.52;89.91
32933;BME280;19444;50.518;10.870;2023-07-20T11:38:54;96380.47;;;18.70;88.33
32933;BME280;19444;50.518;10.870;2023-07-20T11:41:56;96357.31;;;17.92;99.88
32933;BME280;19444;50.518;10.870;2023-07-20T11:44:53;96361.75;;;18.42;100.00
32933;BME280;19444;50.518;10.870;2023-07-20T11:47:52;96366.13;;;17.85;100.00
32933;BME280;19444;50.518;10.870;2023-07-20T11:50:49;96373.41;;;17.46;100.00
32933;BME280;19444;50.518;10.870;2023-07-20T11:53:47;96378.03;;;17.46;100.00
32933;BME280;19444;50.518;10.870;2023-07-20T11:56:44;96377.72;;;17.12;100.00
32933;BME280;19444;50.518;10.870;2023-07-20T11:59:58;96386.00;;;17.19;100.00
32933;BME280;19444;50.518;10.870;2023-07-20T12:02:57;96376.28;;;17.53;100.00
32933;BME280;19444;50.518;10.870;2023-07-20T12:05:54;96358.75;;;19.76;100.00
32933;BME280;19444;50.518;10.870;2023-07-20T12:08:58;96354.63;;;19.93;100.00
32933;BME280;19444;50.518;10.870;2023-07-20T12:11:56;96355.56;;;19.44;100.00
32933;BME280;19444;50.518;10.870;2023-07-20T12:14:52;96361.75;;;18.42;100.00
32933;BME280;19444;50.518;10.870;2023-07-20T12:17:52;96356.91;;;18.74;100.00
32933;BME280;19444;50.518;10.870;2023-07-20T12:20:59;96354.28;;;17.94;100.00
32933;BME280;19444;50.518;10.870;2023-07-20T12:23:57;96360.78;;;17.54;100.00
32933;BME280;19444;50.518;10.870;2023-07-20T12:26:58;96360.19;;;17.80;100.00
32933;BME280;19444;50.518;10.870;2023-07-20T12:29:55;96363.47;;;17.70;100.00
32933;BME280;19444;50.518;10.870;2023-07-20T12:32:53;96360.50;;;17.94;100.00
32933;BME280;19444;50.518;10.870;2023-07-20T12:35:51;96362.47;;;18.62;100.00
32933;BME280;19444;50.518;10.870;2023-07-20T12:38:52;96363.81;;;19.21;100.00
32933;BME280;19444;50.518;10.870;2023-07-20T12:41:49;96369.22;;;18.49;100.00
32933;BME280;19444;50.518;10.870;2023-07-20T12:44:47;96365.38;;;18.50;100.00
32933;BME280;19444;50.518;10.870;2023-07-20T12:47:44;96360.59;;;18.89;100.00
32933;BME280;19444;50.518;10.870;2023-07-20T12:50:41;96348.22;;;19.18;100.00
32933;BME280;19444;50.518;10.870;2023-07-20T12:53:38;96349.44;;;19.21;100.00
32933;BME280;19444;50.518;10.870;2023-07-20T12:56:35;96353.13;;;18.37;100.00
32933;BME280;19444;50.518;10.870;2023-07-20T12:59:35;96350.53;;;19.16;100.00
32933;BME280;19444;50.518;10.870;2023-07-20T13:02:33;96340.50;;;18.94;100.00
32933;BME280;19444;50.518;10.870;2023-07-20T13:05:31;96339.94;;;19.38;98.54
32933;BME280;19444;50.518;10.870;2023-07-20T13:08:31;96329.31;;;18.99;100.00
32933;BME280;19444;50.518;10.870;2023-07-20T13:11:28;96325.66;;;19.71;98.97
32933;BME280;19444;50.518;10.870;2023-07-20T13:14:25;96329.38;;;19.93;94.35
32933;BME280;19444;50.518;10.870;2023-07-20T13:17:24;96328.75;;;18.86;98.37
32933;BME280;19444;50.518;10.870;2023-07-20T13:20:22;96327.00;;;20.25;93.50
32933;BME280;19444;50.518;10.870;2023-07-20T13:23:19;96311.66;;;20.47;79.61
32933;BME280;19444;50.518;10.870;2023-07-20T13:26:16;96315.81;;;20.78;81.60
32933;BME280;19444;50.518;10.870;2023-07-20T13:29:13;96320.84;;;20.31;83.28
32933;BME280;19444;50.518;10.870;2023-07-20T13:32:10;96308.06;;;19.61;78.92
32933;BME280;19444;50.518;10.870;2023-07-20T13:35:07;96319.78;;;20.91;76.96
32933;BME280;19444;50.518;10.870;2023-07-20T13:38:04;96311.66;;;21.64;64.58
32933;BME280;19444;50.518;10.870;2023-07-20T13:41:01;96300.81;;;21.81;59.36
32933;BME280;19444;50.518;10.870;2023-07-20T13:43:58;96300.94;;;22.67;60.97
32933;BME280;19444;50.518;10.870;2023-07-20T13:46:55;96303.28;;;22.26;56.03
32933;BME280;19444;50.518;10.870;2023-07-20T13:50:13;96304.22;;;21.57;64.23
32933;BME280;19444;50.518;10.870;2023-07-20T13:53:22;96308.03;;;21.35;68.59
32933;BME280;19444;50.518;10.870;2023-07-20T13:56:23;96303.94;;;21.07;80.46
32933;BME280;19444;50.518;10.870;2023-07-20T13:59:21;96291.56;;;22.14;69.78
32933;BME280;19444;50.518;10.870;2023-07-20T14:02:18;96298.34;;;21.48;65.45
32933;BME280;19444;50.518;10.870;2023-07-20T14:05:18;96295.56;;;21.34;70.11
32933;BME280;19444;50.518;10.870;2023-07-20T14:08:18;96290.16;;;20.79;71.25
32933;BME280;19444;50.518;10.870;2023-07-20T14:11:16;96298.78;;;21.64;77.97
32933;BME280;19444;50.518;10.870;2023-07-20T14:14:16;96294.72;;;22.45;65.68
32933;BME280;19444;50.518;10.870;2023-07-20T14:17:13;96295.41;;;21.12;61.16
32933;BME280;19444;50.518;10.870;2023-07-20T14:20:10;96292.75;;;22.92;58.33
32933;BME280;19444;50.518;10.870;2023-07-20T14:23:10;96280.50;;;21.75;60.66
32933;BME280;19444;50.518;10.870;2023-07-20T14:26:07;96282.59;;;22.85;58.77
32933;BME280;19444;50.518;10.870;2023-07-20T14:29:18;96284.34;;;21.49;59.01
32933;BME280;19444;50.518;10.870;2023-07-20T14:32:15;96273.19;;;22.04;57.91
32933;BME280;19444;50.518;10.870;2023-07-20T14:35:12;96270.50;;;22.72;62.29
32933;BME280;19444;50.518;10.870;2023-07-20T14:38:10;96278.69;;;22.26;52.94
32933;BME280;19444;50.518;10.870;2023-07-20T14:41:07;96286.88;;;22.83;48.18
32933;BME280;19444;50.518;10.870;2023-07-20T14:44:04;96283.03;;;21.25;49.91
32933;BME280;19444;50.518;10.870;2023-07-20T14:47:01;96295.84;;;23.12;50.72
32933;BME280;19444;50.518;10.870;2023-07-20T14:50:11;96302.53;;;20.28;59.69
32933;BME280;19444;50.518;10.870;2023-07-20T14:53:08;96294.28;;;22.11;56.16
32933;BME280;19444;50.518;10.870;2023-07-20T14:56:06;96295.50;;;22.85;49.09
32933;BME280;19444;50.518;10.870;2023-07-20T14:59:04;96280.56;;;23.32;44.93
32933;BME280;19444;50.518;10.870;2023-07-20T15:02:02;96279.38;;;20.96;51.30
32933;BME280;19444;50.518;10.870;2023-07-20T15:04:59;96286.19;;;20.69;55.74
32933;BME280;19444;50.518;10.870;2023-07-20T15:07:56;96286.25;;;20.76;55.56
32933;BME280;19444;50.518;10.870;2023-07-20T15:10:53;96281.81;;;22.17;50.14
32933;BME280;19444;50.518;10.870;2023-07-20T15:13:50;96291.56;;;22.25;47.02
32933;BME280;19444;50.518;10.870;2023-07-20T15:16:47;96275.41;;;21.67;49.70
32933;BME280;19444;50.518;10.870;2023-07-20T15:19:45;96272.47;;;22.86;46.64
32933;BME280;19444;50.518;10.870;2023-07-20T15:22:42;96266.16;;;23.17;47.85
32933;BME280;19444;50.518;10.870;2023-07-20T15:25:42;96258.34;;;23.16;45.98
32933;BME280;19444;50.518;10.870;2023-07-20T15:28:39;96259.22;;;22.59;47.74
32933;BME280;19444;50.518;10.870;2023-07-20T15:31:37;96275.09;;;21.82;48.88
32933;BME280;19444;50.518;10.870;2023-07-20T15:34:37;96271.22;;;21.91;53.02
32933;BME280;19444;50.518;10.870;2023-07-20T15:37:34;96268.16;;;22.99;46.75
32933;BME280;19444;50.518;10.870;2023-07-20T15:40:33;96255.31;;;22.60;44.35
32933;BME280;19444;50.518;10.870;2023-07-20T15:43:30;96272.03;;;22.84;44.92
32933;BME280;19444;50.518;10.870;2023-07-20T15:46:45;96260.75;;;22.57;48.69
32933;BME280;19444;50.518;10.870;2023-07-20T15:49:45;96274.84;;;21.22;52.01